Date,TemperatureHighF,TemperatureAvgF,TemperatureLowF,DewpointHighF,DewpointAvgF,DewpointLowF,HumidityHigh,HumidityAvg,HumidityLow,PressureMaxIn,PressureMinIn,WindSpeedMaxMPH,WindSpeedAvgMPH,GustSpeedMaxMPH,PrecipitationSumIn
2013-1-1,32.7,27.2,12.5,27.7,16.4,3.5,83,64,52,29.90,29.65,3,1,12,0.00
2013-1-2,24.2,15.5,3.7,16.3,6.6,-6.4,85,68,59,30.10,29.87,3,1,8,0.00
2013-1-3,21.1,9.0,1.4,6.2,-1.2,-7.1,80,63,42,30.11,29.96,2,0,6,0.00
2013-1-4,37.0,26.7,6.2,24.2,19.1,2.8,94,74,58,29.95,29.76,2,0,9,0.02
2013-1-5,36.9,33.8,31.2,25.1,22.5,18.6,75,64,49,30.13,29.77,3,1,7,0.01
2013-1-13,44.2,39.9,35.2,44.2,39.6,34.9,100,99,98,30.12,29.92,0,0,1,0.01
2013-1-14,54.4,43.4,35.8,51.9,38.2,27.0,100,84,52,30.23,29.79,2,0,6,0.00
2013-1-15,38.9,33.5,28.1,27.8,25.4,23.9,88,72,59,30.29,30.20,1,0,5,0.00
2013-1-16,30.2,29.2,26.8,28.9,26.5,24.1,96,90,78,30.21,29.78,0,0,0,0.00
2013-1-17,38.9,30.7,24.5,33.8,23.5,9.1,97,75,51,30.08,29.78,1,0,6,0.13
2013-1-18,24.2,16.2,9.7,10.4,2.0,-3.1,79,54,37,30.40,30.01,3,0,6,0.00
2013-1-19,42.1,32.2,14.7,27.8,22.0,6.0,83,67,50,30.33,29.81,3,0,7,0.16
2013-1-20,48.1,33.9,25.1,31.9,22.9,9.9,93,66,35,29.88,29.49,5,1,7,0.12
2013-1-21,25.6,22.1,14.3,17.8,10.6,2.5,93,63,44,30.04,29.77,3,0,5,0.00
2013-1-22,22.9,16.1,5.4,17.1,8.2,-3.2,93,72,44,30.04,29.73,3,0,8,0.00
2013-1-23,11.4,5.1,-1.6,-1.8,-9.0,-12.8,72,53,35,30.11,30.02,3,0,8,0.00
2013-1-24,8.2,-1.4,-5.1,-6.9,-11.6,-13.0,69,62,45,30.11,30.08,2,0,4,0.00
2013-1-25,19.9,15.8,6.5,5.6,-3.0,-6.7,66,43,33,30.28,30.04,2,0,7,0.00
2013-1-26,19.5,13.7,8.5,8.4,1.3,-5.8,81,59,37,30.20,29.99,3,1,8,0.00
2013-1-27,27.0,19.7,11.6,4.5,1.2,-2.1,63,45,33,30.45,30.19,3,1,7,0.00
2013-1-28,23.9,20.9,12.5,20.5,15.5,0.5,93,81,52,30.42,30.01,1,0,3,0.00
2013-1-29,33.5,28.5,19.2,30.3,25.8,17.5,96,90,82,30.17,30.04,1,0,4,0.12
2013-1-30,50.1,39.0,31.3,50.1,38.5,30.3,100,98,96,30.11,29.38,1,0,2,0.18
2013-1-31,56.9,43.0,28.0,56.9,35.1,12.9,100,76,49,29.51,28.85,6,3,11,0.49
2013-2-1,30.6,25.2,18.9,14.6,10.1,5.7,59,52,42,30.03,29.52,4,2,11,0.00
2013-2-2,27.4,21.5,12.9,12.7,7.6,3.7,68,55,44,30.20,30.00,2,0,10,0.00
2013-2-3,26.7,22.7,15.8,20.2,18.1,13.2,90,83,70,29.97,29.69,2,0,5,0.00
2013-2-4,28.1,23.0,17.6,18.8,9.2,4.2,87,56,42,29.87,29.68,4,1,8,0.00
2013-2-5,26.9,22.9,12.6,14.9,10.6,7.0,79,59,48,30.00,29.91,2,0,5,0.00
2013-2-6,34.8,29.1,20.7,25.5,16.2,4.6,93,59,47,30.27,29.93,3,1,7,0.01
2013-2-7,26.0,21.3,12.4,4.8,2.1,-1.0,58,43,37,30.51,30.27,2,0,6,0.00
2013-2-8,21.3,18.4,14.9,17.2,13.8,0.7,92,83,40,30.47,29.73,3,1,8,0.00
2013-2-9,18.3,14.9,11.7,16.4,12.7,8.3,92,91,86,30.17,29.67,4,2,13,0.00
2013-2-10,33.5,19.4,11.6,17.1,10.5,6.5,86,69,45,30.36,30.18,2,1,12,0.17
2013-2-11,34.0,24.8,15.0,33.5,22.0,7.2,98,89,70,30.31,29.58,0,0,12,0.00
2013-2-12,41.5,36.4,31.2,34.9,30.7,27.9,100,80,64,29.81,29.55,3,1,8,0.35
2013-2-13,40.2,33.7,27.0,28.2,24.6,21.9,83,70,55,29.83,29.69,2,0,5,0.10
2013-2-14,30.1,29.4,28.3,23.9,23.3,22.5,80,77,76,29.73,29.67,0,0,5,0.00
2013-2-15,49.9,34.6,22.1,33.1,26.3,19.1,92,73,49,29.95,29.85,4,0,6,0.00
2013-2-16,39.1,33.7,25.6,30.7,26.1,16.5,95,75,55,29.92,29.71,1,0,3,0.06
2013-2-17,25.7,19.5,13.7,15.5,8.4,2.0,87,63,48,29.71,29.36,5,2,12,0.00
2013-2-18,28.6,18.1,10.8,4.9,1.5,0.1,62,50,33,30.10,29.64,4,2,15,0.00
2013-2-19,41.6,33.6,16.9,36.3,23.2,3.4,97,68,42,30.12,29.53,3,0,15,0.16
2013-2-20,36.1,30.2,23.9,35.3,21.8,14.4,97,72,52,29.72,29.48,4,1,15,0.02
2013-2-21,29.5,24.6,20.6,16.6,13.9,9.7,76,64,53,30.17,29.72,4,2,19,0.00
2013-2-22,38.8,31.4,23.0,24.5,20.8,16.9,81,66,48,30.37,30.18,3,1,6,0.00
2013-2-23,35.1,32.0,28.3,31.5,29.0,24.3,97,89,79,30.29,29.91,2,0,7,0.00
2013-2-24,33.7,32.1,29.6,32.9,31.2,28.6,97,97,96,29.92,29.71,1,0,6,0.12
2013-2-25,38.1,34.0,29.5,35.1,32.3,28.5,96,94,88,30.20,29.87,1,0,4,0.33
2013-2-26,40.1,33.6,29.9,34.6,30.2,27.8,97,87,72,30.29,30.15,1,0,6,0.16
2013-2-27,34.0,32.4,31.7,32.1,31.2,28.8,98,95,87,30.15,29.58,2,1,15,0.66
2013-2-28,42.2,36.2,31.5,38.0,34.3,30.8,98,93,83,29.60,29.51,1,0,15,0.37
2013-3-1,38.7,36.4,33.1,30.7,29.2,27.9,81,75,70,29.65,29.58,2,1,4,0.01
2013-3-2,41.0,37.6,32.7,30.8,29.0,27.1,81,71,65,29.64,29.59,2,1,5,0.00
2013-3-4,30.9,29.8,28.0,28.4,25.3,22.0,91,83,77,29.72,29.60,3,2,9,0.01
2013-3-5,43.2,36.6,27.5,32.0,28.3,21.5,91,73,59,30.05,29.73,2,0,8,0.01
2013-3-6,37.0,34.2,31.7,32.9,30.6,27.6,94,87,78,30.13,30.04,5,2,13,0.07
2013-3-7,34.8,31.2,29.0,30.8,28.7,27.6,96,91,80,30.11,30.00,3,1,8,0.04
2013-3-8,40.9,35.9,28.9,33.2,29.8,24.8,96,79,69,30.15,29.99,2,0,14,0.28
2013-3-9,55.1,40.9,26.2,29.7,24.2,16.3,93,57,22,30.33,30.15,3,0,8,0.04
2013-3-10,44.9,40.8,33.0,31.5,30.6,27.8,89,68,58,30.37,30.26,3,1,9,0.00
2013-3-11,50.9,40.3,29.2,37.9,33.3,27.6,94,77,53,30.28,30.09,1,0,8,0.00
2013-3-12,50.0,47.5,42.3,49.7,47.1,41.8,99,99,98,29.97,29.68,2,0,8,0.56
2013-3-13,47.9,43.5,31.3,46.1,31.4,22.4,99,64,45,29.74,29.67,3,1,8,0.00
2013-3-14,32.0,26.7,19.2,24.7,15.9,8.4,76,64,54,29.80,29.67,3,1,8,0.00
2013-3-15,38.8,28.1,16.8,28.8,15.5,5.4,92,61,34,29.81,29.59,4,1,13,0.00
2013-3-16,35.5,30.3,25.2,26.6,17.0,13.3,83,58,40,29.86,29.64,2,0,13,0.00
2013-3-17,31.7,26.5,20.3,16.5,10.6,4.1,74,51,39,30.29,29.86,3,1,7,0.00
2013-3-18,36.1,25.5,12.8,24.7,8.2,2.3,86,50,28,30.43,30.21,2,0,7,0.00
2013-3-19,32.2,29.5,24.2,31.4,28.4,22.9,97,96,87,30.21,29.65,3,1,8,0.01
2013-3-20,36.7,28.2,23.0,25.8,22.5,18.1,95,80,58,29.76,29.66,4,1,11,0.17
2013-3-21,37.5,28.7,22.2,19.7,18.0,16.3,84,66,42,29.77,29.65,2,0,11,0.12
2013-3-22,30.1,30.0,29.9,23.1,22.9,22.8,75,75,74,29.68,29.68,1,1,1,0.00
2013-3-23,41.1,35.4,25.2,23.4,20.9,19.0,77,56,44,29.73,29.60,5,2,9,0.00
2013-3-24,45.0,39.1,31.8,27.6,25.4,22.5,75,58,48,29.78,29.70,3,1,8,0.00
2013-3-25,43.2,36.7,29.1,31.0,27.7,23.1,80,70,57,29.75,29.51,4,1,8,0.00
2013-3-26,35.4,34.8,33.7,28.6,27.9,27.5,78,76,73,29.55,29.53,1,0,2,0.00
2013-3-27,46.4,44.0,41.6,30.7,28.8,27.5,65,55,48,29.82,29.76,1,0,10,0.00
2013-3-28,48.1,42.3,35.9,34.3,32.9,30.6,91,70,53,29.98,29.90,2,0,5,0.01
2013-3-29,40.6,40.5,40.5,31.9,31.9,31.8,71,71,71,29.98,29.98,0,0,4,0.00
2013-3-31,55.9,46.3,40.9,39.2,35.7,27.9,93,71,34,29.89,29.75,3,1,11,0.02
2013-4-1,59.0,44.6,31.6,44.0,32.5,14.3,94,63,43,29.73,29.46,4,2,11,0.43
2013-4-2,38.2,32.9,28.9,19.4,15.0,10.9,59,48,37,29.86,29.73,5,2,11,0.01
2013-4-3,45.1,38.4,29.3,17.1,13.8,10.4,59,37,26,30.10,29.86,4,2,9,0.00
2013-4-4,54.4,43.9,29.7,24.8,18.9,14.5,58,38,24,30.23,29.96,4,1,7,0.00
2013-4-5,60.3,50.0,35.7,29.4,25.7,21.6,65,40,25,29.96,29.62,3,1,8,0.00
2013-4-6,42.7,36.6,27.6,24.4,11.6,7.1,69,37,23,30.30,29.85,3,1,8,0.00
2013-4-7,56.9,40.1,25.1,37.8,23.9,11.8,82,54,31,30.30,29.92,5,1,10,0.00
2013-4-8,62.7,53.0,41.3,40.7,36.9,33.7,87,56,38,30.06,29.93,3,1,7,0.00
2013-4-9,66.3,56.7,45.4,51.6,45.2,37.7,95,67,49,30.04,29.82,3,1,10,0.05
2013-4-10,56.9,52.5,47.1,51.0,48.5,41.0,98,87,75,29.93,29.82,1,0,10,0.70
2013-4-11,47.0,41.7,35.9,46.2,36.1,28.0,98,82,53,30.12,29.81,1,0,10,0.11
2013-4-12,37.6,33.7,32.4,32.7,31.8,29.4,97,93,77,30.14,29.81,4,1,7,0.45
2013-4-13,50.8,40.8,32.6,40.7,36.2,32.1,98,85,61,29.90,29.76,2,0,7,0.27
2013-4-14,53.2,43.8,36.5,37.6,33.6,29.5,91,69,46,30.18,29.88,3,1,8,0.00
2013-4-15,58.3,48.2,35.2,37.8,34.2,29.9,88,60,43,30.34,30.18,4,1,9,0.00
2013-4-16,68.7,51.8,34.1,53.0,43.8,32.3,93,76,47,30.35,29.99,5,1,11,0.01
2013-4-17,64.1,55.3,41.9,53.2,38.4,30.2,89,56,32,30.30,29.98,3,1,9,0.00
2013-4-18,62.0,54.4,39.9,41.9,34.7,29.6,72,48,39,30.39,30.10,5,2,12,0.00
2013-4-19,73.4,60.9,50.3,62.5,55.4,42.2,96,83,64,30.11,29.55,5,1,11,0.02
2013-4-20,63.7,53.8,46.3,62.7,41.8,27.5,99,67,41,30.02,29.55,4,1,10,0.42
2013-4-21,44.8,39.0,33.0,26.5,23.4,20.6,76,54,41,30.66,30.57,1,0,5,0.00
2013-4-22,51.2,41.6,30.5,32.6,27.6,23.2,86,61,36,30.75,30.58,4,2,12,0.00
2013-4-23,39.8,36.8,31.3,39.0,34.7,29.0,97,92,86,30.58,30.13,2,0,6,0.01
2013-4-24,76.7,66.7,55.1,54.2,48.1,42.0,75,53,31,29.92,29.72,3,1,8,0.00
2013-4-25,58.1,55.7,53.8,50.8,49.3,48.6,89,79,73,29.77,29.73,2,0,6,0.00
2013-4-26,60.4,50.3,39.5,37.1,33.2,27.2,76,53,38,30.39,30.25,3,1,7,0.00
2013-4-27,64.9,52.7,37.3,41.6,36.7,32.4,85,57,37,30.39,30.23,3,0,6,0.00
2013-4-28,71.3,57.7,39.7,44.3,39.1,34.6,82,52,33,30.29,30.15,4,1,7,0.00
2013-4-29,70.8,60.4,45.1,48.4,40.8,-99.9,71,52,37,30.22,30.13,3,1,9,0.00
2013-5-11,66.5,61.4,57.2,63.9,60.2,56.0,99,96,91,29.84,29.64,1,0,5,0.43
2013-5-12,68.6,57.2,45.7,60.4,45.1,31.4,99,65,44,29.76,29.53,2,1,5,0.00
2013-5-13,55.0,47.4,39.4,35.5,32.4,29.6,76,57,43,30.01,29.76,2,1,6,0.00
2013-5-14,59.0,50.9,42.1,36.5,33.2,30.0,69,52,38,30.01,29.94,3,1,8,0.00
2013-5-15,65.0,50.5,35.8,52.3,41.4,32.1,97,74,38,30.02,29.62,2,0,7,0.06
2013-5-16,49.7,48.0,46.1,48.9,47.3,45.3,98,97,97,29.61,29.60,0,0,0,0.00
2013-5-17,64.5,56.7,49.6,42.2,41.1,38.8,75,58,39,30.18,30.05,1,0,6,0.00
2013-5-18,72.4,57.6,41.8,50.2,43.3,39.4,94,63,33,30.26,30.17,2,0,6,0.00
2013-5-19,68.9,58.5,48.7,57.3,53.3,46.8,98,84,63,30.30,30.16,2,0,5,0.14
2013-5-20,78.1,64.2,54.3,68.0,60.4,53.7,100,89,63,30.16,29.88,1,0,4,0.05
2013-5-21,71.5,59.0,49.2,66.2,57.1,47.9,99,94,77,30.00,29.85,3,0,5,0.08
2013-5-22,59.8,54.3,49.5,58.6,53.5,48.8,99,97,95,30.04,29.85,2,0,4,1.41
2013-5-23,63.7,53.8,51.4,63.7,53.6,51.1,100,99,99,29.90,29.81,0,0,4,0.03
2013-5-25,48.5,43.8,37.1,48.2,42.8,35.5,100,96,91,29.79,29.70,3,1,9,0.24
2013-5-26,56.0,47.1,37.0,44.1,39.8,36.0,97,77,62,30.05,29.67,4,2,9,0.19
2013-5-27,68.6,54.7,36.3,46.3,40.4,34.9,97,63,35,30.15,30.04,3,1,7,0.00
2013-5-28,72.2,56.7,40.5,51.1,44.8,38.2,93,67,39,30.21,30.12,1,0,2,0.00
2013-5-29,64.0,58.2,51.0,62.8,57.0,47.5,99,96,86,30.13,29.95,0,0,0,0.41
2013-5-30,86.0,72.7,59.1,70.8,65.2,58.8,100,80,53,30.02,29.95,1,0,4,0.00
2013-5-31,91.6,83.3,69.3,73.8,69.2,64.6,90,64,47,30.03,29.88,1,0,6,0.00
2013-6-1,91.8,78.3,65.7,73.7,67.9,63.9,96,73,44,29.91,29.78,1,0,4,0.00
2013-6-2,90.0,76.1,66.6,74.9,68.4,65.7,98,80,48,29.81,29.63,2,0,8,0.01
2013-6-3,79.1,68.3,57.4,70.1,61.3,48.4,99,80,57,29.79,29.70,1,0,3,0.17
2013-6-4,68.5,59.9,52.7,51.2,47.3,42.0,79,64,48,30.06,29.79,3,0,10,0.00
2013-6-5,53.1,50.9,49.8,47.5,46.5,45.7,87,85,78,30.07,30.06,0,0,1,0.00
2013-6-7,50.8,50.5,50.3,50.5,50.2,50.0,99,99,99,29.88,29.83,1,0,3,1.37
2013-6-8,75.4,62.1,50.8,67.0,58.3,50.5,99,88,70,29.96,29.63,2,0,5,0.91
2013-6-9,77.0,67.2,54.6,61.0,57.6,53.8,98,73,52,30.12,29.96,2,0,8,0.00
2013-6-10,69.0,63.0,56.6,61.7,58.6,54.7,98,86,76,30.17,29.99,1,0,5,0.23
2013-6-11,59.7,56.2,53.6,57.9,55.5,53.3,99,98,92,29.99,29.56,1,0,5,1.27
2013-6-12,66.0,58.1,54.2,58.2,55.4,53.3,99,92,74,29.78,29.53,4,1,7,0.01
2013-6-13,58.0,55.8,53.9,53.4,52.7,51.7,98,89,84,29.77,29.68,0,0,0,0.39
2013-6-14,73.5,64.0,52.6,60.9,56.3,52.2,99,78,53,29.74,29.64,2,0,7,0.47
2013-6-15,64.9,63.3,61.3,55.7,53.7,50.6,73,71,68,29.78,29.74,1,0,4,0.00
2013-6-16,74.9,68.8,61.0,62.9,59.7,50.8,84,73,55,29.88,29.66,1,0,2,0.00
2013-6-17,81.6,69.1,58.6,70.1,62.4,57.9,98,81,55,29.86,29.73,3,0,9,0.14
2013-6-18,66.5,60.4,56.9,61.9,58.2,55.3,99,93,82,29.93,29.84,1,0,4,0.02
2013-6-19,73.9,62.4,52.4,55.9,52.1,47.5,97,72,42,30.11,29.89,2,0,6,0.01
2013-6-20,77.9,67.5,53.6,58.8,53.1,46.2,79,61,45,30.21,30.11,1,0,5,0.00
2013-6-21,82.3,73.0,59.0,62.9,58.0,51.8,86,62,38,30.20,30.15,1,0,4,0.00
2013-6-22,82.0,75.3,59.8,71.5,67.1,56.0,89,76,62,30.16,30.05,1,0,4,0.00
2013-6-23,87.9,80.3,72.7,78.3,72.7,69.3,90,78,67,30.06,29.92,1,0,2,0.03
2013-6-24,91.2,79.2,68.4,75.9,71.5,67.2,97,79,54,29.95,29.82,2,0,7,0.04
2013-6-25,88.8,79.5,68.2,76.2,72.3,67.2,98,80,63,29.87,29.67,1,0,4,0.50
2013-6-26,79.1,70.9,65.8,74.3,69.5,65.5,99,96,80,29.81,29.69,0,0,2,0.49
2013-6-27,68.7,63.7,60.1,67.8,63.3,60.1,100,99,96,29.83,29.72,0,0,2,0.05
2013-6-28,71.3,62.8,56.3,71.2,62.7,55.8,100,100,99,29.73,29.44,1,0,2,1.03
2013-6-29,82.0,73.1,67.9,74.7,70.0,66.8,100,91,73,29.66,29.46,1,0,3,0.01
2013-6-30,83.1,72.4,66.1,75.8,70.1,65.5,99,93,73,29.88,29.66,1,0,4,0.10
2013-7-1,75.3,72.2,68.0,74.0,71.8,67.7,100,99,94,30.02,29.88,0,0,0,0.52
2013-7-2,80.0,68.7,60.6,77.8,68.0,60.3,100,98,87,30.19,30.01,1,0,4,0.01
2013-7-3,83.9,75.3,60.6,77.8,72.4,60.3,100,91,78,30.17,30.07,1,0,5,0.00
2013-7-4,90.2,79.1,69.5,78.9,74.4,69.2,100,87,64,30.15,30.02,1,0,3,0.00
2013-7-5,91.5,85.3,76.0,80.0,76.8,72.7,92,76,65,30.08,29.99,1,0,4,0.00
2013-7-6,86.8,79.4,72.1,76.5,72.4,67.2,96,80,63,30.01,29.93,1,0,5,0.00
2013-7-7,88.1,80.9,71.7,78.5,74.3,67.2,96,81,59,29.97,29.85,1,0,3,0.00
2013-7-8,83.3,74.7,64.0,77.0,72.1,63.7,99,92,77,30.03,29.86,1,0,3,2.00
2013-7-9,72.2,69.1,64.0,69.7,67.7,63.7,100,95,88,30.07,30.02,0,0,2,0.00
2013-7-10,79.8,71.8,66.0,76.7,71.4,65.4,100,99,90,30.03,29.74,1,0,2,0.35
2013-7-11,72.4,71.4,66.1,72.4,71.3,64.9,100,100,96,29.91,29.70,0,0,0,0.12
2013-7-12,79.3,72.6,62.1,66.4,63.7,59.6,96,75,59,30.17,29.91,1,0,4,0.00
2013-7-13,78.7,71.9,61.5,71.6,67.7,59.2,98,87,75,30.27,30.17,1,0,2,0.00
2013-7-14,87.2,80.4,68.9,77.1,73.7,68.3,99,81,66,30.25,30.16,1,0,2,0.00
2013-7-15,88.8,79.8,69.1,76.8,71.8,67.3,98,78,58,30.16,30.05,2,0,3,0.00
2013-7-16,90.2,79.7,73.1,76.3,71.0,66.3,95,76,53,30.11,30.07,2,0,4,0.00
2013-7-17,91.4,79.6,68.9,78.9,72.6,67.5,97,81,55,30.13,29.91,0,0,2,0.00
2013-7-18,87.9,78.0,72.4,78.2,74.2,72.0,99,89,69,29.96,29.89,1,0,3,0.02
2013-7-19,92.9,78.0,69.2,80.4,74.3,68.9,100,90,61,29.89,29.64,1,0,2,0.01
2013-7-20,88.4,79.7,69.6,76.3,72.0,65.6,88,78,64,29.74,29.60,1,0,4,0.00
2013-7-21,79.8,72.9,67.1,70.9,68.8,64.7,99,88,62,29.94,29.89,0,0,2,0.21
2013-7-22,79.3,72.4,67.1,73.5,68.9,65.0,99,89,79,29.99,29.86,0,0,2,0.00
2013-7-23,72.5,70.1,66.4,71.9,69.6,65.6,100,98,94,29.86,29.49,0,0,1,1.73
2013-7-24,80.2,72.9,58.8,73.1,64.5,51.6,82,75,65,29.94,29.60,1,0,7,0.00
2013-7-25,68.1,60.7,54.8,60.0,54.8,48.8,93,81,68,30.07,29.94,1,0,4,0.00
2013-7-26,71.7,63.5,60.4,68.2,62.1,57.8,99,95,86,30.04,29.90,1,0,4,0.54
2013-7-27,82.8,69.9,59.4,69.5,63.6,58.5,97,82,58,30.01,29.94,1,0,4,0.01
2013-7-28,80.3,68.9,60.7,73.2,66.2,60.1,99,92,74,29.98,29.93,1,0,5,0.15
2013-7-29,83.2,70.7,65.1,74.2,68.2,64.8,100,93,70,30.00,29.90,1,0,2,0.01
2013-7-30,79.1,69.4,60.9,66.2,60.4,55.9,98,74,55,30.05,29.99,2,0,6,0.00
2013-7-31,80.8,71.8,62.5,67.5,62.7,58.6,95,75,53,30.09,29.99,1,0,4,0.00
2013-8-1,79.3,71.9,61.9,69.2,65.9,60.6,97,82,65,30.00,29.83,1,0,5,0.27
2013-8-2,80.0,69.1,63.7,70.7,64.1,59.4,100,85,58,29.83,29.74,1,0,4,0.92
2013-8-3,78.7,69.5,61.6,65.9,61.1,56.1,93,76,54,29.81,29.72,1,0,5,0.00
2013-8-4,76.2,68.3,58.1,63.8,58.5,52.7,89,71,58,29.85,29.74,2,0,5,0.00
2013-8-5,73.5,63.2,55.7,53.5,49.7,43.1,87,64,35,30.02,29.84,3,0,8,0.00
2013-8-6,77.8,62.8,48.7,61.2,53.8,46.8,95,74,50,30.11,30.01,1,0,7,0.00
2013-8-7,79.0,65.1,53.0,64.2,57.5,51.9,97,79,50,30.15,30.05,1,0,4,0.00
2013-8-8,80.8,71.3,63.7,73.5,67.2,59.1,96,87,76,30.07,29.95,1,0,5,0.00
2013-8-9,72.7,71.1,68.4,72.7,70.8,68.3,100,99,96,29.97,29.68,1,0,2,1.19
2013-8-10,79.5,69.8,61.0,68.6,61.5,52.9,100,78,42,29.98,29.74,3,0,6,0.01
2013-8-11,77.9,65.6,55.4,62.0,56.5,51.8,90,74,46,30.04,29.95,1,0,6,0.00
2013-8-12,77.8,65.5,60.5,63.1,57.8,55.1,91,77,55,29.98,29.88,2,0,5,0.00
2013-8-13,70.4,65.7,61.0,69.2,64.5,59.5,99,96,92,29.88,29.64,0,0,1,0.03
2013-8-14,64.4,63.3,58.5,64.1,62.5,51.3,99,98,77,29.91,29.62,0,0,5,0.00
2013-8-15,74.6,62.8,53.2,59.2,54.2,50.0,91,75,52,30.07,29.92,1,0,5,0.00
2013-8-16,76.3,65.3,54.1,61.6,56.6,51.2,92,74,53,30.15,30.06,1,0,4,0.00
2013-8-17,78.7,65.1,54.2,64.2,58.9,52.8,97,82,51,30.24,30.14,1,0,3,0.00
2013-8-18,77.4,69.2,58.7,69.3,64.6,57.4,98,86,72,30.23,30.03,0,0,0,0.00
2013-8-19,77.5,69.0,60.1,67.8,63.3,58.6,96,83,64,30.04,29.90,1,0,4,0.00
2013-8-20,83.4,72.0,62.5,70.6,64.6,60.2,95,78,57,30.05,29.94,1,0,2,0.00
2013-8-21,85.7,73.4,61.7,71.2,65.7,60.3,97,78,52,30.10,29.97,0,0,2,0.00
2013-8-22,85.0,73.2,62.6,73.5,68.1,60.9,99,85,62,29.98,29.77,1,0,2,0.50
2013-8-23,76.7,68.6,60.7,69.0,60.4,52.0,99,77,52,30.10,29.77,3,0,8,0.00
2013-8-24,76.2,63.3,53.9,58.3,53.4,49.8,91,71,48,30.29,30.10,1,0,5,0.00
2013-8-25,80.4,64.5,50.4,62.5,56.3,48.9,97,78,44,30.33,30.13,1,0,1,0.00
2013-8-26,78.1,73.4,68.9,70.4,68.6,67.0,94,85,75,29.98,29.82,1,0,4,0.06
2013-8-27,84.0,72.9,66.5,72.1,68.3,64.9,98,86,60,29.86,29.79,1,0,4,0.00
2013-8-28,84.7,72.4,62.6,73.0,67.8,62.0,98,86,67,29.95,29.80,1,0,2,0.04
2013-8-29,65.6,63.4,60.1,64.7,62.5,59.2,99,97,94,30.05,29.91,1,0,2,0.22
2013-8-30,81.5,72.8,58.4,71.6,68.2,57.8,98,86,71,29.99,29.76,1,0,2,0.00
2013-8-31,77.3,72.3,67.9,75.8,71.3,66.7,100,96,94,29.79,29.72,0,0,1,0.08
2013-9-1,82.5,74.0,68.0,75.6,71.8,67.7,100,93,77,29.83,29.73,1,0,2,0.31
2013-9-2,75.4,71.4,67.0,75.4,71.3,66.7,100,100,98,29.82,29.67,1,0,4,0.87
2013-9-3,75.8,69.2,59.9,71.2,65.9,58.2,100,90,80,29.75,29.66,0,0,2,0.00
2013-9-4,78.0,68.8,59.0,63.0,59.9,55.0,95,74,52,29.87,29.74,1,0,5,0.00
2013-9-5,68.3,60.2,50.0,57.1,50.5,44.4,92,72,49,30.13,29.82,2,0,5,0.00
2013-9-6,67.0,54.7,44.2,51.8,45.7,41.0,90,73,47,30.22,30.05,2,0,5,0.00
2013-9-7,75.5,59.8,45.8,63.7,53.3,44.4,96,81,45,30.05,29.80,0,0,2,0.02
2013-9-8,69.3,59.4,50.2,62.2,51.1,42.7,96,75,51,30.06,29.71,4,0,7,0.00
2013-9-9,66.5,54.5,41.0,55.0,47.2,39.2,95,78,53,30.19,30.05,1,0,4,0.00
2013-9-10,71.3,66.1,51.4,70.4,65.3,49.4,100,97,91,30.10,29.98,0,0,2,0.05
2013-9-11,87.5,74.5,66.5,80.8,72.0,66.5,100,92,72,30.01,29.88,3,0,5,0.03
2013-9-12,69.2,68.2,65.8,68.3,67.7,65.8,100,98,97,29.88,29.62,0,0,0,1.66
2013-9-13,71.2,64.8,56.7,69.3,62.8,53.2,100,93,78,29.73,29.55,2,0,4,0.04
2013-9-14,63.3,57.8,50.3,56.6,53.2,49.0,96,85,75,30.02,29.73,2,0,5,0.00
2013-9-15,65.7,55.5,46.2,56.8,51.3,45.6,99,87,61,30.13,30.01,1,0,5,0.00
2013-9-16,63.1,55.6,44.4,56.4,48.2,37.4,89,76,71,30.24,30.00,2,0,6,0.01
2013-9-17,61.5,51.0,40.0,48.1,41.2,36.2,87,70,53,30.41,30.23,2,0,6,0.00
2013-10-6,53.1,50.7,48.9,52.8,50.3,48.1,99,98,97,30.22,30.13,1,0,4,0.25
2013-10-7,70.5,61.1,53.1,69.3,60.7,52.8,100,99,94,30.12,29.72,2,0,8,0.53
2013-10-8,60.9,53.8,43.7,48.3,43.5,40.1,89,69,49,30.36,30.14,2,1,7,0.01
2013-10-9,58.2,50.1,42.6,48.5,43.7,39.0,96,80,57,30.47,30.35,1,0,5,0.00
2013-10-10,57.9,49.8,41.7,51.1,46.6,40.8,99,90,67,30.35,30.17,0,0,4,0.00
2013-10-11,46.7,46.4,46.2,45.6,45.3,45.1,96,96,96,30.12,30.11,0,0,0,0.00
2013-10-13,56.7,48.9,41.8,50.8,46.7,40.9,99,92,77,30.43,30.36,1,0,5,0.01
2013-10-14,61.5,48.6,35.9,50.1,44.3,35.1,99,86,63,30.38,30.20,2,0,5,0.00
2013-10-15,62.9,56.9,51.1,56.3,52.9,48.2,96,87,78,30.23,30.15,0,0,2,0.00
2013-10-16,58.2,53.8,47.7,53.0,50.9,46.7,99,90,77,30.15,29.88,0,0,1,0.00
2013-10-17,70.5,59.6,47.3,59.0,51.0,46.5,98,75,47,29.88,29.67,1,0,5,0.00
2013-10-18,62.5,55.4,45.3,56.7,48.1,39.5,99,77,61,29.87,29.56,2,0,6,0.16
2013-10-19,65.0,59.0,52.8,49.4,47.3,45.8,84,66,50,29.93,29.70,1,0,5,0.01
2013-10-20,58.3,50.9,41.7,48.5,40.0,36.6,89,67,50,29.98,29.67,2,0,5,0.00
2013-10-21,64.0,51.9,38.2,47.7,42.7,36.5,95,72,49,30.08,29.94,1,0,6,0.00
2013-10-22,60.2,51.5,42.0,54.0,47.2,36.7,98,86,72,29.94,29.68,1,0,4,0.01
2013-10-23,51.9,48.0,42.6,37.6,35.9,33.6,78,63,50,29.75,29.55,1,0,4,0.01
2013-10-24,49.8,44.3,38.2,37.6,33.7,30.6,87,68,51,29.84,29.61,2,0,11,0.00
2013-10-25,47.8,40.6,32.3,34.4,30.4,27.4,89,68,50,30.11,29.85,2,0,8,0.00
2013-10-26,51.7,41.2,29.7,36.7,30.6,26.9,94,69,45,30.11,29.82,3,0,6,0.00
2013-10-27,52.4,46.0,36.5,38.4,33.9,29.6,82,63,50,30.02,29.76,2,0,8,0.00
2013-10-28,55.4,42.9,31.7,38.5,32.4,24.7,88,68,50,30.32,30.01,2,0,8,0.00
2013-10-29,46.1,33.7,27.5,25.2,23.0,21.2,83,67,38,30.42,30.32,2,0,4,0.00
2013-10-30,48.1,36.8,28.1,39.1,31.6,23.3,95,82,69,30.34,30.17,1,0,5,0.00
2013-10-31,57.3,43.7,30.6,57.0,42.5,29.4,99,96,91,30.21,29.73,1,0,5,0.10
2013-11-1,66.1,59.2,50.6,62.8,56.2,47.8,100,90,75,29.73,29.35,3,1,9,0.12
2013-11-2,63.5,54.0,42.8,49.8,45.3,40.6,93,74,50,29.70,29.55,1,0,5,0.04
2013-11-3,47.6,37.2,28.3,45.4,23.0,17.0,92,58,41,30.40,29.70,1,0,5,0.00
2013-11-4,40.0,30.8,23.9,21.3,19.2,17.2,86,63,43,30.69,30.40,2,0,5,0.00
2013-11-5,47.4,34.5,23.4,32.4,27.0,20.0,89,75,54,30.69,30.47,3,0,6,0.00
2013-11-6,59.6,48.9,36.4,46.3,41.6,32.2,91,77,58,30.47,29.96,2,0,6,0.00
2013-11-7,61.6,51.6,39.7,57.0,47.3,33.6,91,85,79,29.97,29.63,2,0,5,0.03
2013-11-8,45.6,37.9,29.4,34.6,28.7,23.9,84,70,53,30.04,29.77,2,0,9,0.00
2013-11-9,42.5,38.0,34.2,30.4,26.5,23.9,81,64,50,30.14,29.99,2,0,9,0.01
2013-11-10,48.1,40.2,33.5,42.8,36.1,29.7,97,85,74,29.98,29.69,2,0,9,0.06
2013-11-11,49.3,41.8,35.6,33.7,30.0,27.2,79,64,43,30.05,29.80,3,1,9,0.00
2013-11-12,42.8,31.1,25.8,33.3,20.9,16.3,78,66,58,30.15,29.83,2,0,8,0.02
2013-11-13,26.2,25.3,24.0,16.8,16.2,15.5,70,68,66,30.17,30.14,1,1,8,0.00
2013-11-17,46.4,40.6,33.1,45.8,38.6,28.5,98,93,80,30.29,29.82,0,0,0,0.06
2013-11-18,62.4,52.1,44.1,54.7,45.6,33.7,100,80,51,29.81,29.48,2,0,6,0.15
2013-11-19,44.4,36.2,29.1,34.2,23.0,16.4,68,59,49,30.27,29.60,3,1,10,0.00
2013-11-20,38.2,31.6,27.7,19.0,16.9,15.1,64,55,40,30.59,30.26,2,0,10,0.00
2013-11-21,45.2,36.2,24.8,28.2,20.9,14.4,79,56,30,30.61,30.33,2,0,10,0.00
2013-11-22,40.6,38.9,33.6,40.1,37.4,27.5,99,94,78,30.33,29.77,0,0,1,0.20
2013-11-23,43.1,34.5,26.7,42.8,25.5,13.5,99,71,47,29.88,29.73,2,1,11,0.00
2013-11-24,26.6,21.4,16.6,15.5,5.1,0.7,70,49,41,30.14,29.74,5,2,12,0.00
2013-11-25,29.4,23.1,14.8,18.4,7.0,-1.2,74,51,32,30.34,30.14,2,1,11,0.00
2013-11-26,34.8,31.3,25.7,31.0,25.6,16.7,95,80,65,30.29,30.03,1,0,11,0.01
2013-11-27,53.2,42.2,32.3,52.8,41.3,30.1,99,96,81,30.03,29.20,3,1,8,0.96
2013-11-28,35.3,30.5,18.2,31.0,18.8,7.2,86,63,42,30.40,29.38,4,2,11,0.00
2013-11-29,28.5,21.5,13.9,14.1,9.8,6.5,77,62,39,30.73,30.40,1,0,11,0.00
2013-11-30,28.6,21.2,11.4,20.7,13.0,6.9,82,71,53,30.79,30.41,2,0,5,0.00
2013-12-1,33.7,31.1,26.9,32.9,28.2,20.0,97,89,75,30.41,30.00,0,0,2,0.04
2013-12-2,37.4,35.0,32.9,36.9,34.5,32.4,98,98,97,30.00,29.89,0,0,1,0.00
2013-12-3,46.6,37.7,30.5,39.3,33.4,28.6,98,85,65,29.92,29.82,1,0,3,0.00
2013-12-4,40.4,33.5,28.1,29.9,27.7,25.8,95,80,62,30.17,29.91,1,0,4,0.00
2013-12-5,37.7,36.2,28.0,37.2,35.4,25.7,98,97,91,30.18,29.87,0,0,0,0.02
2013-12-6,45.0,40.5,32.2,43.6,36.3,31.2,98,86,68,30.12,29.86,1,0,3,0.06
2013-12-7,33.8,29.2,21.3,32.3,25.9,18.8,97,88,73,30.42,30.05,1,0,7,0.02
2013-12-8,28.1,24.0,19.1,22.1,19.1,16.1,91,82,67,30.56,30.42,1,0,2,0.00
2013-12-9,32.4,28.1,22.9,31.6,26.6,18.6,100,94,77,30.48,29.85,1,0,4,0.00
2013-12-10,31.8,27.2,16.4,31.0,26.0,14.0,98,95,87,29.95,29.76,1,0,1,0.00
2013-12-11,29.1,20.4,13.5,20.7,15.6,11.8,93,82,60,30.15,29.95,2,0,7,0.00
2013-12-12,20.0,14.0,7.1,18.1,8.7,2.8,93,79,65,30.16,30.01,1,0,2,0.00
2013-12-13,26.5,14.4,5.7,19.2,8.5,-0.7,87,77,63,30.39,29.93,3,0,7,0.00
2013-12-14,13.7,10.3,4.9,11.6,4.0,-3.1,91,76,59,30.55,30.19,1,0,5,0.00
2013-12-15,27.2,19.3,13.8,25.7,17.6,11.7,95,93,91,30.19,29.43,2,0,9,0.00
2013-12-16,24.8,17.1,7.1,16.7,10.8,2.0,93,77,54,30.18,29.69,3,0,9,0.00
2013-12-17,13.5,7.4,-1.7,11.0,2.9,-6.3,91,82,62,30.26,29.97,1,0,3,0.00
2013-12-18,31.7,22.9,13.6,21.6,18.1,11.2,90,82,65,30.02,29.87,2,0,6,0.00
2013-12-19,38.8,28.7,23.1,26.7,23.0,20.1,90,80,60,30.07,29.91,2,0,5,0.00
2013-12-20,39.7,35.0,28.9,35.4,30.7,25.9,92,84,73,30.08,29.87,1,0,4,0.00
2013-12-21,51.2,41.7,34.1,43.8,38.1,31.5,97,87,73,29.90,29.81,1,0,2,0.02
2013-12-22,43.6,35.2,31.3,43.1,34.7,30.8,98,98,97,30.01,29.79,2,0,5,0.08
2013-12-23,37.0,32.4,30.5,36.7,32.1,30.0,100,99,98,30.06,29.94,1,0,6,0.27
2013-12-24,34.7,28.8,20.4,34.4,20.2,11.5,99,71,62,30.18,30.03,2,0,5,0.00
2013-12-25,20.2,16.5,11.9,11.3,6.2,0.9,80,64,49,30.52,30.18,2,0,11,0.00
2013-12-26,26.0,20.2,13.4,24.0,16.7,7.8,94,86,73,30.47,30.06,0,0,3,0.00
2013-12-27,32.4,25.9,18.9,22.1,20.1,17.5,94,79,63,30.22,30.15,2,0,5,0.02
2013-12-28,44.3,33.8,18.9,31.7,27.7,16.4,92,79,61,30.17,29.93,2,0,5,0.04
2013-12-29,36.6,32.0,27.2,33.1,29.9,25.6,97,92,79,29.99,29.45,1,0,4,0.86
2013-12-30,38.2,27.8,11.0,34.1,21.1,5.2,98,77,60,30.16,29.49,3,1,8,0.01
2013-12-31,21.3,13.7,5.9,13.5,5.0,-2.4,88,68,53,30.15,29.99,1,0,5,0.00
2014-1-1,23.1,16.3,9.9,11.3,8.6,5.4,83,72,55,30.35,30.13,3,0,7,0.00
2014-1-2,15.9,7.6,-1.2,11.1,4.3,-4.6,89,86,79,30.34,29.90,2,0,9,0.00